Terminal Aerodrome Forecast
Issued by NWS

Home | Current Version | Previous Version | Text Only | Print | Product List | Glossary On
Versions: 1 2 3 4 5 6 7 8 9 10 11 12 13 14 15 16 17 18 19 20
000
FTUS42 KTAE 030524
TAFECP
TAF
KECP 030524Z 0306/0406 00000KT P6SM FEW007 BKN250
     FM030900 24003KT 3SM BR SCT007 BKN015
      TEMPO 0309/0313 1SM BR SCT002 BKN005
     FM031500 25010KT P6SM -SHRA BKN040
     FM032000 24008KT 5SM TSRA BKN035CB
     FM040500 26003KT P6SM OVC025=

USA.gov is the U.S. government's official web portal to all federal, state and local government web resources and services.